sensor_id;sensor_type;location;lat;lon;timestamp;pressure;altitude;pressure_sealevel;temperature;humidity
62725;BME280;49026;52.600;4.694;2023-06-04T00:00:26;102378.97;;;11.18;48.85
62725;BME280;49026;52.600;4.694;2023-06-04T00:02:53;102382.59;;;11.10;48.94
62725;BME280;49026;52.600;4.694;2023-06-04T00:05:18;102372.06;;;11.10;49.80
62725;BME280;49026;52.600;4.694;2023-06-04T00:07:44;102371.22;;;11.10;49.39
62725;BME280;49026;52.600;4.694;2023-06-04T00:10:09;102374.72;;;11.09;49.41
62725;BME280;49026;52.600;4.694;2023-06-04T00:12:37;102372.16;;;11.06;49.26
62725;BME280;49026;52.600;4.694;2023-06-04T00:15:03;102370.47;;;11.02;48.90
62725;BME280;49026;52.600;4.694;2023-06-04T00:17:28;102374.91;;;11.00;48.83
62725;BME280;49026;52.600;4.694;2023-06-04T00:19:56;102377.59;;;10.95;48.99
62725;BME280;49026;52.600;4.694;2023-06-04T00:22:24;102372.44;;;10.89;48.39
62725;BME280;49026;52.600;4.694;2023-06-04T00:24:56;102377.69;;;10.89;49.31
62725;BME280;49026;52.600;4.694;2023-06-04T00:27:22;102372.50;;;10.86;49.56
62725;BME280;49026;52.600;4.694;2023-06-04T00:29:47;102371.69;;;10.82;48.76
62725;BME280;49026;52.600;4.694;2023-06-04T00:32:14;102369.97;;;10.81;49.07
62725;BME280;49026;52.600;4.694;2023-06-04T00:34:42;102376.09;;;10.80;50.00
62725;BME280;49026;52.600;4.694;2023-06-04T00:37:07;102376.06;;;10.82;49.69
62725;BME280;49026;52.600;4.694;2023-06-04T00:39:32;102374.31;;;10.81;49.07
62725;BME280;49026;52.600;4.694;2023-06-04T00:41:59;102376.16;;;10.77;49.16
62725;BME280;49026;52.600;4.694;2023-06-04T00:44:25;102373.56;;;10.74;49.79
62725;BME280;49026;52.600;4.694;2023-06-04T00:46:51;102373.63;;;10.71;49.31
62725;BME280;49026;52.600;4.694;2023-06-04T00:49:19;102371.06;;;10.66;49.28
62725;BME280;49026;52.600;4.694;2023-06-04T00:51:44;102367.53;;;10.67;51.36
62725;BME280;49026;52.600;4.694;2023-06-04T00:54:10;102374.53;;;10.68;51.23
62725;BME280;49026;52.600;4.694;2023-06-04T00:56:37;102367.56;;;10.66;49.64
62725;BME280;49026;52.600;4.694;2023-06-04T00:59:08;102368.50;;;10.63;50.03
62725;BME280;49026;52.600;4.694;2023-06-04T01:01:42;102368.53;;;10.60;49.88
62725;BME280;49026;52.600;4.694;2023-06-04T01:04:25;102374.72;;;10.57;50.02
62725;BME280;49026;52.600;4.694;2023-06-04T01:06:53;102371.31;;;10.51;49.83
62725;BME280;49026;52.600;4.694;2023-06-04T01:09:21;102377.47;;;10.48;49.48
62725;BME280;49026;52.600;4.694;2023-06-04T01:11:47;102376.66;;;10.45;50.24
62725;BME280;49026;52.600;4.694;2023-06-04T01:14:12;102377.53;;;10.45;50.01
62725;BME280;49026;52.600;4.694;2023-06-04T01:16:53;102380.19;;;10.42;50.29
62725;BME280;49026;52.600;4.694;2023-06-04T01:22:13;102378.53;;;10.36;49.79
62725;BME280;49026;52.600;4.694;2023-06-04T01:24:52;102384.75;;;10.32;50.42
62725;BME280;49026;52.600;4.694;2023-06-04T01:27:18;102383.84;;;10.29;50.87
62725;BME280;49026;52.600;4.694;2023-06-04T01:29:44;102388.28;;;10.27;51.45
62725;BME280;49026;52.600;4.694;2023-06-04T01:32:10;102383.94;;;10.24;50.35
62725;BME280;49026;52.600;4.694;2023-06-04T01:34:45;102383.16;;;10.17;50.40
62725;BME280;49026;52.600;4.694;2023-06-04T01:37:11;102376.22;;;10.12;50.33
62725;BME280;49026;52.600;4.694;2023-06-04T01:39:41;102379.81;;;10.06;49.83
62725;BME280;49026;52.600;4.694;2023-06-04T01:42:08;102380.81;;;9.97;50.33
62725;BME280;49026;52.600;4.694;2023-06-04T01:44:34;102380.00;;;9.92;50.04
62725;BME280;49026;52.600;4.694;2023-06-04T01:46:59;102376.56;;;9.86;50.11
62725;BME280;49026;52.600;4.694;2023-06-04T01:49:27;102373.19;;;9.77;50.25
62725;BME280;49026;52.600;4.694;2023-06-04T01:51:52;102377.63;;;9.72;50.15
62725;BME280;49026;52.600;4.694;2023-06-04T01:54:18;102373.28;;;9.67;50.17
62725;BME280;49026;52.600;4.694;2023-06-04T01:56:43;102374.25;;;9.61;50.38
62725;BME280;49026;52.600;4.694;2023-06-04T01:59:09;102370.78;;;9.57;50.67
62725;BME280;49026;52.600;4.694;2023-06-04T02:01:39;102377.84;;;9.52;49.89
62725;BME280;49026;52.600;4.694;2023-06-04T02:04:06;102376.13;;;9.46;50.45
62725;BME280;49026;52.600;4.694;2023-06-04T02:06:34;102377.09;;;9.41;50.66
62725;BME280;49026;52.600;4.694;2023-06-04T02:08:59;102373.63;;;9.37;50.57
62725;BME280;49026;52.600;4.694;2023-06-04T02:11:27;102379.75;;;9.35;50.60
62725;BME280;49026;52.600;4.694;2023-06-04T02:13:55;102378.94;;;9.31;50.70
62725;BME280;49026;52.600;4.694;2023-06-04T02:16:20;102373.75;;;9.25;50.79
62725;BME280;49026;52.600;4.694;2023-06-04T02:18:46;102375.50;;;9.23;50.37
62725;BME280;49026;52.600;4.694;2023-06-04T02:21:11;102369.47;;;9.16;50.80
62725;BME280;49026;52.600;4.694;2023-06-04T02:23:37;102376.50;;;9.11;50.41
62725;BME280;49026;52.600;4.694;2023-06-04T02:26:02;102379.16;;;9.08;50.68
62725;BME280;49026;52.600;4.694;2023-06-04T02:28:27;102370.44;;;9.04;50.85
62725;BME280;49026;52.600;4.694;2023-06-04T02:30:53;102373.94;;;9.02;50.84
62725;BME280;49026;52.600;4.694;2023-06-04T02:33:18;102371.38;;;8.99;50.36
62725;BME280;49026;52.600;4.694;2023-06-04T02:35:43;102372.25;;;8.98;51.07
62725;BME280;49026;52.600;4.694;2023-06-04T02:38:09;102371.41;;;8.96;51.10
62725;BME280;49026;52.600;4.694;2023-06-04T02:40:35;102370.53;;;8.95;51.28
62725;BME280;49026;52.600;4.694;2023-06-04T02:43:02;102371.41;;;8.96;51.37
62725;BME280;49026;52.600;4.694;2023-06-04T02:45:28;102377.50;;;8.98;51.04
62725;BME280;49026;52.600;4.694;2023-06-04T02:47:56;102374.00;;;8.99;51.46
62725;BME280;49026;52.600;4.694;2023-06-04T02:50:26;102374.03;;;8.96;51.94
62725;BME280;49026;52.600;4.694;2023-06-04T02:52:51;102369.66;;;8.95;51.36
62725;BME280;49026;52.600;4.694;2023-06-04T02:55:16;102374.03;;;8.97;51.39
62725;BME280;49026;52.600;4.694;2023-06-04T02:57:42;102373.09;;;9.03;51.06
62725;BME280;49026;52.600;4.694;2023-06-04T03:00:09;102378.31;;;9.06;51.47
62725;BME280;49026;52.600;4.694;2023-06-04T03:02:39;102373.91;;;9.08;51.18
62725;BME280;49026;52.600;4.694;2023-06-04T03:05:05;102373.91;;;9.08;51.21
62725;BME280;49026;52.600;4.694;2023-06-04T03:07:33;102373.91;;;9.08;51.16
62725;BME280;49026;52.600;4.694;2023-06-04T03:09:58;102372.16;;;9.08;51.49
62725;BME280;49026;52.600;4.694;2023-06-04T03:12:23;102366.88;;;9.10;51.35
62725;BME280;49026;52.600;4.694;2023-06-04T03:14:49;102368.63;;;9.13;51.75
62725;BME280;49026;52.600;4.694;2023-06-04T03:17:15;102370.41;;;9.11;51.69
62725;BME280;49026;52.600;4.694;2023-06-04T03:19:44;102365.16;;;9.09;51.73
62725;BME280;49026;52.600;4.694;2023-06-04T03:22:11;102367.81;;;9.06;51.79
62725;BME280;49026;52.600;4.694;2023-06-04T03:24:41;102375.69;;;9.06;51.65
62725;BME280;49026;52.600;4.694;2023-06-04T03:27:08;102367.84;;;9.03;52.16
62725;BME280;49026;52.600;4.694;2023-06-04T03:29:34;102372.22;;;9.02;52.13
62725;BME280;49026;52.600;4.694;2023-06-04T03:32:02;102368.72;;;9.02;52.25
62725;BME280;49026;52.600;4.694;2023-06-04T03:34:30;102372.25;;;8.99;52.50
62725;BME280;49026;52.600;4.694;2023-06-04T03:36:59;102363.53;;;8.97;52.07
62725;BME280;49026;52.600;4.694;2023-06-04T03:39:25;102362.63;;;8.97;52.39
62725;BME280;49026;52.600;4.694;2023-06-04T03:41:50;102369.63;;;8.99;52.49
62725;BME280;49026;52.600;4.694;2023-06-04T03:44:18;102359.13;;;9.01;52.65
62725;BME280;49026;52.600;4.694;2023-06-04T03:46:45;102364.34;;;9.04;52.45
62725;BME280;49026;52.600;4.694;2023-06-04T03:49:10;102373.06;;;9.06;52.46
62725;BME280;49026;52.600;4.694;2023-06-04T03:51:41;102372.19;;;9.05;52.82
62725;BME280;49026;52.600;4.694;2023-06-04T03:54:06;102366.91;;;9.07;52.63
62725;BME280;49026;52.600;4.694;2023-06-04T03:56:32;102375.66;;;9.07;52.60
62725;BME280;49026;52.600;4.694;2023-06-04T03:58:57;102367.78;;;9.09;53.24
62725;BME280;49026;52.600;4.694;2023-06-04T04:01:23;102370.31;;;9.17;53.80
62725;BME280;49026;52.600;4.694;2023-06-04T04:03:49;102379.78;;;9.32;53.94
62725;BME280;49026;52.600;4.694;2023-06-04T04:06:16;102385.78;;;9.44;54.09
62725;BME280;49026;52.600;4.694;2023-06-04T04:08:41;102380.41;;;9.55;54.52
62725;BME280;49026;52.600;4.694;2023-06-04T04:11:13;102376.75;;;9.70;54.45
62725;BME280;49026;52.600;4.694;2023-06-04T04:13:45;102375.69;;;9.83;54.56
62725;BME280;49026;52.600;4.694;2023-06-04T04:16:10;102378.16;;;9.99;54.67
62725;BME280;49026;52.600;4.694;2023-06-04T04:18:36;102378.72;;;10.23;54.85
62725;BME280;49026;52.600;4.694;2023-06-04T04:21:02;102378.34;;;10.49;54.72
62725;BME280;49026;52.600;4.694;2023-06-04T04:23:31;102374.47;;;10.73;54.80
62725;BME280;49026;52.600;4.694;2023-06-04T04:25:58;102372.38;;;10.93;54.66
62725;BME280;49026;52.600;4.694;2023-06-04T04:28:27;102369.38;;;11.13;54.44
62725;BME280;49026;52.600;4.694;2023-06-04T04:30:58;102376.09;;;11.31;54.15
62725;BME280;49026;52.600;4.694;2023-06-04T04:33:25;102374.88;;;11.49;54.14
62725;BME280;49026;52.600;4.694;2023-06-04T04:35:51;102373.63;;;11.67;54.47
62725;BME280;49026;52.600;4.694;2023-06-04T04:38:18;102375.88;;;11.86;54.57
62725;BME280;49026;52.600;4.694;2023-06-04T04:40:44;102371.16;;;12.03;54.33
62725;BME280;49026;52.600;4.694;2023-06-04T04:43:12;102362.91;;;12.19;54.29
62725;BME280;49026;52.600;4.694;2023-06-04T04:45:39;102367.81;;;12.34;54.17
62725;BME280;49026;52.600;4.694;2023-06-04T04:48:05;102365.69;;;12.50;53.91
62725;BME280;49026;52.600;4.694;2023-06-04T04:50:33;102372.34;;;12.67;54.24
62725;BME280;49026;52.600;4.694;2023-06-04T04:52:58;102362.19;;;12.86;54.28
62725;BME280;49026;52.600;4.694;2023-06-04T04:55:24;102361.78;;;13.01;54.25
62725;BME280;49026;52.600;4.694;2023-06-04T04:57:49;102366.69;;;13.16;54.23
62725;BME280;49026;52.600;4.694;2023-06-04T05:00:15;102364.53;;;13.31;54.19
62725;BME280;49026;52.600;4.694;2023-06-04T05:02:40;102365.94;;;13.44;53.75
62725;BME280;49026;52.600;4.694;2023-06-04T05:05:06;102364.59;;;13.61;54.08
62725;BME280;49026;52.600;4.694;2023-06-04T05:07:32;102365.81;;;13.80;54.04
62725;BME280;49026;52.600;4.694;2023-06-04T05:09:57;102366.38;;;13.92;53.44
62725;BME280;49026;52.600;4.694;2023-06-04T05:12:25;102376.66;;;14.01;54.11
62725;BME280;49026;52.600;4.694;2023-06-04T05:14:51;102364.06;;;14.09;54.14
62725;BME280;49026;52.600;4.694;2023-06-04T05:17:19;102370.03;;;14.16;53.61
62725;BME280;49026;52.600;4.694;2023-06-04T05:19:46;102373.41;;;14.21;53.83
62725;BME280;49026;52.600;4.694;2023-06-04T05:22:12;102370.63;;;14.25;53.57
62725;BME280;49026;52.600;4.694;2023-06-04T05:24:37;102375.72;;;14.32;54.16
62725;BME280;49026;52.600;4.694;2023-06-04T05:27:03;102380.88;;;14.35;55.81
62725;BME280;49026;52.600;4.694;2023-06-04T05:29:28;102374.53;;;14.42;54.76
62725;BME280;49026;52.600;4.694;2023-06-04T05:31:53;102380.38;;;14.52;54.22
62725;BME280;49026;52.600;4.694;2023-06-04T05:34:19;102378.22;;;14.64;54.39
62725;BME280;49026;52.600;4.694;2023-06-04T05:36:46;102382.09;;;14.81;54.33
62725;BME280;49026;52.600;4.694;2023-06-04T05:39:14;102370.59;;;14.82;54.92
62725;BME280;49026;52.600;4.694;2023-06-04T05:41:39;102371.34;;;14.86;55.42
62725;BME280;49026;52.600;4.694;2023-06-04T05:44:06;102376.03;;;15.04;53.89
62725;BME280;49026;52.600;4.694;2023-06-04T05:46:31;102380.66;;;15.23;53.75
62725;BME280;49026;52.600;4.694;2023-06-04T05:48:57;102376.06;;;15.28;54.25
62725;BME280;49026;52.600;4.694;2023-06-04T05:51:22;102378.81;;;15.25;53.61
62725;BME280;49026;52.600;4.694;2023-06-04T05:53:47;102377.13;;;15.24;53.66
62725;BME280;49026;52.600;4.694;2023-06-04T05:56:13;102379.75;;;15.24;54.49
62725;BME280;49026;52.600;4.694;2023-06-04T05:58:38;102381.16;;;15.34;53.57
62725;BME280;49026;52.600;4.694;2023-06-04T06:01:04;102377.75;;;15.55;53.98
62725;BME280;49026;52.600;4.694;2023-06-04T06:03:29;102377.75;;;15.55;53.68
62725;BME280;49026;52.600;4.694;2023-06-04T06:05:57;102379.16;;;15.41;54.60
62725;BME280;49026;52.600;4.694;2023-06-04T06:08:25;102385.75;;;15.29;53.80
62725;BME280;49026;52.600;4.694;2023-06-04T06:10:50;102391.38;;;15.19;55.49
62725;BME280;49026;52.600;4.694;2023-06-04T06:13:15;102391.47;;;15.16;54.32
62725;BME280;49026;52.600;4.694;2023-06-04T06:15:41;102391.47;;;15.16;54.79
62725;BME280;49026;52.600;4.694;2023-06-04T06:18:07;102389.88;;;15.12;55.40
62725;BME280;49026;52.600;4.694;2023-06-04T06:20:32;102397.94;;;15.08;54.92
62725;BME280;49026;52.600;4.694;2023-06-04T06:23:00;102402.28;;;15.10;55.72
62725;BME280;49026;52.600;4.694;2023-06-04T06:25:30;102401.97;;;15.19;54.73
62725;BME280;49026;52.600;4.694;2023-06-04T06:27:58;102404.31;;;15.29;55.02
62725;BME280;49026;52.600;4.694;2023-06-04T06:30:24;102406.94;;;15.29;55.67
62725;BME280;49026;52.600;4.694;2023-06-04T06:32:49;102399.16;;;15.24;55.80
62725;BME280;49026;52.600;4.694;2023-06-04T06:35:16;102407.16;;;15.23;55.55
62725;BME280;49026;52.600;4.694;2023-06-04T06:37:42;102405.22;;;15.28;55.86
62725;BME280;49026;52.600;4.694;2023-06-04T06:40:09;102410.25;;;15.35;55.45
62725;BME280;49026;52.600;4.694;2023-06-04T06:42:34;102408.56;;;15.33;55.55
62725;BME280;49026;52.600;4.694;2023-06-04T06:45:00;102403.47;;;15.27;55.93
62725;BME280;49026;52.600;4.694;2023-06-04T06:47:25;102405.91;;;15.33;55.94
62725;BME280;49026;52.600;4.694;2023-06-04T06:49:50;102405.84;;;15.34;56.94
62725;BME280;49026;52.600;4.694;2023-06-04T06:52:17;102413.75;;;15.36;56.93
62725;BME280;49026;52.600;4.694;2023-06-04T06:54:45;102407.91;;;15.51;56.31
62725;BME280;49026;52.600;4.694;2023-06-04T06:57:10;102406.25;;;15.72;55.41
62725;BME280;49026;52.600;4.694;2023-06-04T06:59:35;102408.31;;;15.89;55.90
62725;BME280;49026;52.600;4.694;2023-06-04T07:02:01;102415.84;;;16.00;56.61
62725;BME280;49026;52.600;4.694;2023-06-04T07:04:26;102412.91;;;16.08;55.70
62725;BME280;49026;52.600;4.694;2023-06-04T07:06:55;102420.44;;;16.19;55.48
62725;BME280;49026;52.600;4.694;2023-06-04T07:09:20;102419.25;;;16.27;56.50
62725;BME280;49026;52.600;4.694;2023-06-04T07:11:45;102416.66;;;16.26;56.47
62725;BME280;49026;52.600;4.694;2023-06-04T07:14:11;102422.00;;;16.24;56.16
62725;BME280;49026;52.600;4.694;2023-06-04T07:16:36;102416.47;;;16.30;56.05
62725;BME280;49026;52.600;4.694;2023-06-04T07:19:01;102418.97;;;16.34;56.28
62725;BME280;49026;52.600;4.694;2023-06-04T07:21:27;102414.44;;;16.37;55.99
62725;BME280;49026;52.600;4.694;2023-06-04T07:23:55;102407.91;;;16.46;56.32
62725;BME280;49026;52.600;4.694;2023-06-04T07:26:20;102420.78;;;16.55;56.39
62725;BME280;49026;52.600;4.694;2023-06-04T07:28:46;102407.28;;;16.61;55.76
62725;BME280;49026;52.600;4.694;2023-06-04T07:31:15;102404.38;;;16.67;55.85
62725;BME280;49026;52.600;4.694;2023-06-04T07:33:40;102406.66;;;16.77;55.58
62725;BME280;49026;52.600;4.694;2023-06-04T07:36:10;102407.22;;;16.85;55.77
62725;BME280;49026;52.600;4.694;2023-06-04T07:38:36;102406.91;;;16.93;55.72
62725;BME280;49026;52.600;4.694;2023-06-04T07:41:01;102411.31;;;17.14;56.18
62725;BME280;49026;52.600;4.694;2023-06-04T07:43:26;102412.88;;;17.39;55.90
62725;BME280;49026;52.600;4.694;2023-06-04T07:45:51;102409.91;;;17.47;55.99
62725;BME280;49026;52.600;4.694;2023-06-04T07:48:17;102412.69;;;17.44;55.70
62725;BME280;49026;52.600;4.694;2023-06-04T07:50:42;102409.38;;;17.38;56.03
62725;BME280;49026;52.600;4.694;2023-06-04T07:53:07;102417.75;;;17.50;55.68
62725;BME280;49026;52.600;4.694;2023-06-04T07:55:36;102412.31;;;17.53;55.10
62725;BME280;49026;52.600;4.694;2023-06-04T07:58:01;102413.88;;;17.57;55.45
62725;BME280;49026;52.600;4.694;2023-06-04T08:00:26;102413.28;;;17.71;55.58
62725;BME280;49026;52.600;4.694;2023-06-04T08:02:52;102415.63;;;17.98;55.90
62725;BME280;49026;52.600;4.694;2023-06-04T08:05:17;102409.22;;;18.21;55.02
62725;BME280;49026;52.600;4.694;2023-06-04T08:07:45;102414.09;;;18.30;54.68
62725;BME280;49026;52.600;4.694;2023-06-04T08:10:11;102403.75;;;18.24;54.06
62725;BME280;49026;52.600;4.694;2023-06-04T08:12:37;102415.34;;;18.23;54.62
62725;BME280;49026;52.600;4.694;2023-06-04T08:15:05;102426.16;;;18.37;54.84
62725;BME280;49026;52.600;4.694;2023-06-04T08:17:30;102418.69;;;18.45;54.70
62725;BME280;49026;52.600;4.694;2023-06-04T08:19:56;102417.25;;;18.38;53.79
62725;BME280;49026;52.600;4.694;2023-06-04T08:22:21;102419.16;;;18.36;52.98
62725;BME280;49026;52.600;4.694;2023-06-04T08:24:47;102418.25;;;18.55;54.21
62725;BME280;49026;52.600;4.694;2023-06-04T08:27:12;102415.03;;;18.84;54.11
62725;BME280;49026;52.600;4.694;2023-06-04T08:29:38;102406.91;;;19.05;53.81
62725;BME280;49026;52.600;4.694;2023-06-04T08:32:05;102408.00;;;19.18;53.51
62725;BME280;49026;52.600;4.694;2023-06-04T08:34:32;102418.94;;;19.47;54.56
62725;BME280;49026;52.600;4.694;2023-06-04T08:37:00;102417.34;;;19.60;52.83
62725;BME280;49026;52.600;4.694;2023-06-04T08:39:25;102412.81;;;19.45;53.27
62725;BME280;49026;52.600;4.694;2023-06-04T08:41:52;102412.34;;;19.37;52.98
62725;BME280;49026;52.600;4.694;2023-06-04T08:44:21;102420.66;;;19.48;52.79
62725;BME280;49026;52.600;4.694;2023-06-04T08:46:51;102422.25;;;19.68;52.60
62725;BME280;49026;52.600;4.694;2023-06-04T08:49:18;102422.88;;;19.73;53.09
62725;BME280;49026;52.600;4.694;2023-06-04T08:51:44;102420.69;;;19.97;53.99
62725;BME280;49026;52.600;4.694;2023-06-04T08:54:09;102424.78;;;20.36;53.11
62725;BME280;49026;52.600;4.694;2023-06-04T08:56:37;102423.22;;;20.64;53.40
62725;BME280;49026;52.600;4.694;2023-06-04T08:59:05;102425.97;;;20.79;52.34
62725;BME280;49026;52.600;4.694;2023-06-04T09:01:35;102427.28;;;21.02;53.20
62725;BME280;49026;52.600;4.694;2023-06-04T09:04:04;102424.53;;;21.03;52.04
62725;BME280;49026;52.600;4.694;2023-06-04T09:06:29;102428.72;;;21.07;52.21
62725;BME280;49026;52.600;4.694;2023-06-04T09:08:58;102431.53;;;21.20;52.06
62725;BME280;49026;52.600;4.694;2023-06-04T09:11:26;102425.13;;;21.23;51.63
62725;BME280;49026;52.600;4.694;2023-06-04T09:13:54;102424.53;;;21.18;50.82
62725;BME280;49026;52.600;4.694;2023-06-04T09:16:23;102411.91;;;21.05;50.06
62725;BME280;49026;52.600;4.694;2023-06-04T09:18:50;102419.88;;;20.91;50.83
62725;BME280;49026;52.600;4.694;2023-06-04T09:21:18;102423.38;;;20.77;49.95
62725;BME280;49026;52.600;4.694;2023-06-04T09:23:45;102425.09;;;20.78;50.99
62725;BME280;49026;52.600;4.694;2023-06-04T09:26:11;102428.47;;;20.82;50.08
62725;BME280;49026;52.600;4.694;2023-06-04T09:28:41;102435.47;;;20.99;50.65
62725;BME280;49026;52.600;4.694;2023-06-04T09:31:16;102428.91;;;21.04;48.77
62725;BME280;49026;52.600;4.694;2023-06-04T09:33:51;102430.22;;;20.97;49.36
62725;BME280;49026;52.600;4.694;2023-06-04T09:36:16;102428.50;;;20.96;48.29
62725;BME280;49026;52.600;4.694;2023-06-04T09:38:44;102427.38;;;21.00;49.33
62725;BME280;49026;52.600;4.694;2023-06-04T09:41:16;102431.22;;;21.25;50.21
62725;BME280;49026;52.600;4.694;2023-06-04T09:43:42;102428.59;;;21.39;49.49
62725;BME280;49026;52.600;4.694;2023-06-04T09:46:16;102427.19;;;21.48;50.12
62725;BME280;49026;52.600;4.694;2023-06-04T09:48:43;102428.56;;;21.55;50.11
62725;BME280;49026;52.600;4.694;2023-06-04T09:51:13;102435.22;;;21.48;48.53
62725;BME280;49026;52.600;4.694;2023-06-04T09:53:40;102433.00;;;21.40;48.86
62725;BME280;49026;52.600;4.694;2023-06-04T09:56:07;102433.81;;;21.57;49.44
62725;BME280;49026;52.600;4.694;2023-06-04T09:58:34;102431.50;;;21.65;49.13
62725;BME280;49026;52.600;4.694;2023-06-04T10:01:02;102430.00;;;21.45;47.67
62725;BME280;49026;52.600;4.694;2023-06-04T10:03:35;102441.78;;;21.42;48.94
62725;BME280;49026;52.600;4.694;2023-06-04T10:06:03;102433.03;;;21.55;48.47
62725;BME280;49026;52.600;4.694;2023-06-04T10:08:30;102438.31;;;21.71;48.12
62725;BME280;49026;52.600;4.694;2023-06-04T10:10:58;102439.03;;;22.01;49.54
62725;BME280;49026;52.600;4.694;2023-06-04T10:13:26;102440.06;;;22.28;41.60
62725;BME280;49026;52.600;4.694;2023-06-04T10:15:52;102441.06;;;22.54;48.48
62725;BME280;49026;52.600;4.694;2023-06-04T10:18:18;102444.78;;;22.51;47.24
62725;BME280;49026;52.600;4.694;2023-06-04T10:20:44;102447.63;;;22.35;46.99
62725;BME280;49026;52.600;4.694;2023-06-04T10:23:10;102448.13;;;21.99;45.77
62725;BME280;49026;52.600;4.694;2023-06-04T10:25:38;102445.66;;;21.96;46.24
62725;BME280;49026;52.600;4.694;2023-06-04T10:28:04;102437.81;;;21.93;46.18
62725;BME280;49026;52.600;4.694;2023-06-04T10:30:30;102446.03;;;21.90;46.15
62725;BME280;49026;52.600;4.694;2023-06-04T10:33:02;102447.66;;;21.92;45.67
62725;BME280;49026;52.600;4.694;2023-06-04T10:35:35;102444.69;;;21.82;47.06
62725;BME280;49026;52.600;4.694;2023-06-04T10:38:05;102448.13;;;21.56;46.63
62725;BME280;49026;52.600;4.694;2023-06-04T10:40:33;102441.44;;;21.49;46.95
62725;BME280;49026;52.600;4.694;2023-06-04T10:43:11;102440.78;;;21.59;46.83
62725;BME280;49026;52.600;4.694;2023-06-04T10:45:37;102448.91;;;21.72;46.57
62725;BME280;49026;52.600;4.694;2023-06-04T10:48:04;102443.16;;;21.78;45.78
62725;BME280;49026;52.600;4.694;2023-06-04T10:50:31;102440.84;;;22.01;46.80
62725;BME280;49026;52.600;4.694;2023-06-04T10:52:59;102441.69;;;22.16;46.53
62725;BME280;49026;52.600;4.694;2023-06-04T10:55:30;102442.34;;;22.19;45.55
62725;BME280;49026;52.600;4.694;2023-06-04T10:58:00;102437.03;;;22.34;45.25
62725;BME280;49026;52.600;4.694;2023-06-04T11:00:38;102437.97;;;22.33;41.57
62725;BME280;49026;52.600;4.694;2023-06-04T11:03:09;102442.38;;;22.34;46.58
62725;BME280;49026;52.600;4.694;2023-06-04T11:05:36;102437.22;;;22.31;45.76
62725;BME280;49026;52.600;4.694;2023-06-04T11:08:05;102438.88;;;22.46;46.83
62725;BME280;49026;52.600;4.694;2023-06-04T11:10:36;102440.75;;;22.31;45.85
62725;BME280;49026;52.600;4.694;2023-06-04T11:13:03;102443.22;;;22.20;46.19
62725;BME280;49026;52.600;4.694;2023-06-04T11:18:04;102437.50;;;22.53;45.29
62725;BME280;49026;52.600;4.694;2023-06-04T11:20:30;102435.25;;;22.47;44.89
62725;BME280;49026;52.600;4.694;2023-06-04T11:22:57;102437.47;;;22.41;45.40
62725;BME280;49026;52.600;4.694;2023-06-04T11:25:26;102434.28;;;22.48;45.47
62725;BME280;49026;52.600;4.694;2023-06-04T11:27:56;102432.31;;;22.65;45.56
62725;BME280;49026;52.600;4.694;2023-06-04T11:30:24;102430.63;;;22.64;45.40
62725;BME280;49026;52.600;4.694;2023-06-04T11:32:59;102435.38;;;22.58;44.23
62725;BME280;49026;52.600;4.694;2023-06-04T11:35:25;102435.53;;;22.70;45.42
62725;BME280;49026;52.600;4.694;2023-06-04T11:37:54;102426.56;;;22.71;44.87
62725;BME280;49026;52.600;4.694;2023-06-04T11:40:20;102428.84;;;22.77;39.08
62725;BME280;49026;52.600;4.694;2023-06-04T11:42:46;102420.31;;;22.98;44.49
62725;BME280;49026;52.600;4.694;2023-06-04T11:45:13;102424.22;;;22.92;44.77
62725;BME280;49026;52.600;4.694;2023-06-04T11:47:39;102419.06;;;22.76;45.60
62725;BME280;49026;52.600;4.694;2023-06-04T11:50:06;102425.63;;;22.85;44.10
62725;BME280;49026;52.600;4.694;2023-06-04T11:52:33;102424.88;;;23.23;44.58
62725;BME280;49026;52.600;4.694;2023-06-04T11:55:01;102405.56;;;23.43;43.93
62725;BME280;49026;52.600;4.694;2023-06-04T11:57:27;102412.09;;;23.26;44.69
62725;BME280;49026;52.600;4.694;2023-06-04T11:59:56;102418.91;;;23.05;43.63
62725;BME280;49026;52.600;4.694;2023-06-04T12:02:21;102414.41;;;22.92;43.79
62725;BME280;49026;52.600;4.694;2023-06-04T12:04:47;102407.25;;;22.79;44.36
62725;BME280;49026;52.600;4.694;2023-06-04T12:07:19;102415.53;;;22.88;44.28
62725;BME280;49026;52.600;4.694;2023-06-04T12:09:46;102407.91;;;22.69;43.92
62725;BME280;49026;52.600;4.694;2023-06-04T12:12:11;102404.63;;;22.51;44.92
62725;BME280;49026;52.600;4.694;2023-06-04T12:14:37;102414.09;;;22.70;44.77
62725;BME280;49026;52.600;4.694;2023-06-04T12:17:09;102408.84;;;22.68;43.61
62725;BME280;49026;52.600;4.694;2023-06-04T12:19:48;102423.72;;;22.60;43.95
62725;BME280;49026;52.600;4.694;2023-06-04T12:22:16;102406.34;;;22.52;44.27
62725;BME280;49026;52.600;4.694;2023-06-04T12:24:52;102406.09;;;22.43;44.83
62725;BME280;49026;52.600;4.694;2023-06-04T12:27:18;102414.31;;;22.39;45.03
62725;BME280;49026;52.600;4.694;2023-06-04T12:29:54;102404.88;;;22.19;44.76
62725;BME280;49026;52.600;4.694;2023-06-04T12:32:22;102413.00;;;22.18;45.21
62725;BME280;49026;52.600;4.694;2023-06-04T12:34:47;102402.66;;;22.26;45.25
62725;BME280;49026;52.600;4.694;2023-06-04T12:37:13;102400.66;;;22.30;45.47
62725;BME280;49026;52.600;4.694;2023-06-04T12:39:39;102411.53;;;22.27;45.00
62725;BME280;49026;52.600;4.694;2023-06-04T12:42:13;102400.34;;;22.07;45.43
62725;BME280;49026;52.600;4.694;2023-06-04T12:44:39;102403.38;;;22.15;45.27
62725;BME280;49026;52.600;4.694;2023-06-04T12:47:05;102410.78;;;22.25;45.52
62725;BME280;49026;52.600;4.694;2023-06-04T12:49:31;102414.94;;;22.16;44.78
62725;BME280;49026;52.600;4.694;2023-06-04T12:51:56;102403.75;;;22.09;45.09
62725;BME280;49026;52.600;4.694;2023-06-04T12:54:24;102406.91;;;22.16;45.39
62725;BME280;49026;52.600;4.694;2023-06-04T12:56:50;102411.50;;;22.14;45.07